Time;durP1;ratioP1;P1;durP2;ratioP2;P2;SDS_P1;SDS_P2;PMS_P1;PMS_P2;Temp;Humidity;BMP_temperature;BMP_pressure;BME280_temperature;BME280_humidity;BME280_pressure;Samples;Min_cycle;Max_cycle;Signal;HPM_P1;HPM_P2
2023/01/10 00:00:47;;;;;;;0.70;0.70;;;;;;;2.36;100.00;99385.00;5037412;28;20685;-81
2023/01/10 00:03:13;;;;;;;0.70;0.70;;;;;;;2.35;100.00;99393.50;5037241;28;20214;-81
2023/01/10 00:05:41;;;;;;;0.90;0.90;;;;;;;2.36;100.00;99415.69;5072408;28;20199;-80
2023/01/10 00:08:09;;;;;;;0.83;0.83;;;;;;;2.08;100.00;99430.81;5072688;28;20199;-80
2023/01/10 00:10:36;;;;;;;0.73;0.73;;;;;;;2.20;100.00;99428.75;5072768;28;20606;-81
2023/01/10 00:15:47;;;;;;;0.90;0.90;;;;;;;2.44;100.00;99433.88;5072567;28;20252;-81
2023/01/10 00:18:14;;;;;;;0.80;0.80;;;;;;;2.60;100.00;99431.06;5072100;28;20195;-80
2023/01/10 00:20:44;;;;;;;1.40;1.40;;;;;;;2.67;100.00;99416.81;5072333;28;20205;-81
2023/01/10 00:23:11;;;;;;;1.43;1.43;;;;;;;2.35;100.00;99373.03;5071920;28;20258;-81
2023/01/10 00:25:38;;;;;;;0.80;0.80;;;;;;;2.55;100.00;99408.69;5072191;28;20195;-81
2023/01/10 00:28:14;;;;;;;0.80;0.80;;;;;;;2.13;100.00;99329.63;5036849;28;20190;-80
2023/01/10 00:30:41;;;;;;;1.00;1.00;;;;;;;2.81;100.00;99420.72;5072048;28;20248;-81
2023/01/10 00:33:11;;;;;;;0.60;0.60;;;;;;;2.93;100.00;99411.75;5072132;28;20211;-81
2023/01/10 00:35:37;;;;;;;0.73;0.73;;;;;;;3.01;100.00;99399.22;5071968;28;20194;-81
2023/01/10 00:38:08;;;;;;;0.80;0.80;;;;;;;3.17;100.00;99391.25;5072094;28;20195;-80
2023/01/10 00:40:34;;;;;;;0.70;0.70;;;;;;;3.09;100.00;99374.75;5071916;28;20226;-80
2023/01/10 00:45:46;;;;;;;0.50;0.50;;;;;;;3.32;100.00;99394.28;5071832;28;20679;-80
2023/01/10 00:48:13;;;;;;;0.63;0.63;;;;;;;3.26;100.00;99396.66;5071580;28;20207;-80
2023/01/10 00:50:40;;;;;;;1.07;1.07;;;;;;;3.34;100.00;99395.22;5071388;28;20202;-80
2023/01/10 00:53:08;;;;;;;0.60;0.60;;;;;;;3.27;100.00;99364.22;5071570;28;20701;-80
2023/01/10 00:55:36;;;;;;;0.70;0.70;;;;;;;3.35;100.00;99391.81;5019937;28;20646;-81
2023/01/10 00:58:03;;;;;;;0.80;0.80;;;;;;;3.20;100.00;99363.16;5036416;28;20199;-80
2023/01/10 01:00:30;;;;;;;0.67;0.67;;;;;;;3.36;100.00;99383.31;5071288;28;20293;-80
2023/01/10 01:02:57;;;;;;;0.70;0.70;;;;;;;3.49;100.00;99400.84;5071226;28;20639;-81
2023/01/10 01:05:24;;;;;;;0.80;0.80;;;;;;;3.59;100.00;99403.69;5071220;28;20241;-81
2023/01/10 01:07:52;;;;;;;0.70;0.70;;;;;;;3.51;100.00;99380.38;5071366;28;20221;-80
2023/01/10 01:10:26;;;;;;;1.00;1.00;;;;;;;3.59;100.00;99411.38;5071051;28;20238;-80
2023/01/10 01:12:53;;;;;;;1.10;1.10;;;;;;;3.55;100.00;99409.53;5071247;28;20218;-81
2023/01/10 01:15:20;;;;;;;0.70;0.70;;;;;;;3.53;100.00;99403.50;5071159;28;20207;-81
2023/01/10 01:17:47;;;;;;;0.80;0.80;;;;;;;3.64;100.00;99410.66;5071124;28;20202;-83
2023/01/10 01:20:14;;;;;;;0.60;0.60;;;;;;;3.52;100.00;99396.63;5071188;28;20249;-82
2023/01/10 01:22:41;;;;;;;0.60;0.60;;;;;;;3.49;100.00;99426.47;5070758;28;20230;-82
2023/01/10 01:25:09;;;;;;;0.53;0.53;;;;;;;3.63;100.00;99418.34;5070917;28;20202;-82
2023/01/10 01:27:37;;;;;;;0.60;0.60;;;;;;;3.68;100.00;99411.63;5070987;28;20206;-82
2023/01/10 01:30:05;;;;;;;0.70;0.70;;;;;;;3.80;100.00;99414.59;5035879;28;20199;-81
2023/01/10 01:32:32;;;;;;;0.60;0.60;;;;;;;3.88;100.00;99413.16;5070947;28;20202;-82
2023/01/10 01:34:59;;;;;;;0.60;0.60;;;;;;;3.98;100.00;99412.59;5070852;28;20199;-81
2023/01/10 01:37:26;;;;;;;2.23;1.83;;;;;;;3.94;100.00;99400.50;5070756;28;20191;-82
2023/01/10 01:39:53;;;;;;;0.60;0.60;;;;;;;4.07;100.00;99417.13;5071006;28;20207;-81
2023/01/10 01:42:24;;;;;;;0.77;0.77;;;;;;;3.87;100.00;99384.06;5070869;28;20260;-81
2023/01/10 01:45:30;;;;;;;1.50;1.50;;;;;;;3.79;100.00;99405.16;5070936;28;20201;-81
2023/01/10 01:48:01;;;;;;;0.90;0.90;;;;;;;3.85;100.00;99400.25;5070811;28;20206;-79
2023/01/10 01:50:32;;;;;;;0.60;0.60;;;;;;;3.94;100.00;99401.38;5070988;28;20203;-82
2023/01/10 01:53:02;;;;;;;0.80;0.80;;;;;;;3.81;100.00;99412.09;5070840;28;20604;-83
2023/01/10 01:55:33;;;;;;;1.27;1.27;;;;;;;3.88;100.00;99413.16;5070624;28;20202;-83
2023/01/10 01:58:05;;;;;;;0.70;0.70;;;;;;;3.95;100.00;99399.69;5018902;28;20206;-82
2023/01/10 02:00:34;;;;;;;0.57;0.57;;;;;;;3.98;100.00;99397.22;5070553;28;20195;-82
2023/01/10 02:03:03;;;;;;;0.60;0.60;;;;;;;3.95;100.00;99402.25;5070616;28;20218;-81
2023/01/10 02:05:32;;;;;;;0.83;0.83;;;;;;;3.85;100.00;99395.94;5070852;28;20202;-81
2023/01/10 02:08:01;;;;;;;0.70;0.70;;;;;;;3.82;100.00;99405.25;5070450;28;20677;-83
2023/01/10 02:10:33;;;;;;;0.60;0.60;;;;;;;3.91;100.00;99385.03;5070665;28;20245;-79
2023/01/10 02:13:04;;;;;;;0.63;0.63;;;;;;;3.98;100.00;99404.91;5070432;28;20206;-79
2023/01/10 02:15:32;;;;;;;0.57;0.57;;;;;;;3.95;100.00;99402.25;5070483;28;20194;-79
2023/01/10 02:18:02;;;;;;;0.63;0.63;;;;;;;3.89;100.00;99372.16;5070416;28;20195;-79
2023/01/10 02:20:34;;;;;;;0.70;0.70;;;;;;;3.76;100.00;99382.00;5070505;28;20198;-79
2023/01/10 02:23:39;;;;;;;0.50;0.50;;;;;;;3.85;100.00;99382.28;5070407;28;20610;-79
2023/01/10 02:26:31;;;;;;;1.10;1.10;;;;;;;3.83;100.00;99373.66;5070520;28;20194;-79
2023/01/10 02:29:26;;;;;;;0.73;0.73;;;;;;;3.85;100.00;99374.59;5070568;28;20195;-80
2023/01/10 02:32:11;;;;;;;0.50;0.50;;;;;;;3.96;100.00;99375.75;4989012;28;20224;-79
2023/01/10 02:34:51;;;;;;;1.33;1.33;;;;;;;4.03;100.00;99384.53;4989008;28;20215;-80
2023/01/10 02:37:25;;;;;;;0.70;0.70;;;;;;;4.00;100.00;99377.59;4988838;28;20202;-78
2023/01/10 02:39:58;;;;;;;0.80;0.80;;;;;;;3.99;100.00;99370.75;4988647;28;20260;-79
2023/01/10 02:42:32;;;;;;;0.70;0.70;;;;;;;3.93;100.00;99362.84;4991781;28;20289;-80
2023/01/10 02:45:04;;;;;;;0.77;0.77;;;;;;;3.91;100.00;99367.94;4992652;28;20233;-80
2023/01/10 02:47:36;;;;;;;0.70;0.70;;;;;;;4.03;100.00;99367.44;4992448;28;20208;-80
2023/01/10 02:50:28;;;;;;;1.57;1.57;;;;;;;3.72;100.00;99334.00;4992491;28;20201;-80
2023/01/10 02:52:58;;;;;;;1.00;1.00;;;;;;;3.78;100.00;99329.09;4992467;28;20209;-79
2023/01/10 02:55:34;;;;;;;0.80;0.80;;;;;;;3.90;100.00;99337.13;4992423;28;20248;-79
2023/01/10 02:58:10;;;;;;;0.70;0.70;;;;;;;3.86;100.00;99325.03;4959958;28;20196;-79
2023/01/10 03:00:45;;;;;;;0.70;0.70;;;;;;;3.76;100.00;99303.41;4992431;28;20202;-78
2023/01/10 03:03:32;;;;;;;1.07;1.07;;;;;;;3.89;100.00;99302.91;4992095;28;20263;-79
2023/01/10 03:06:11;;;;;;;1.07;1.07;;;;;;;4.00;100.00;99308.34;4992337;28;20202;-81
2023/01/10 03:08:45;;;;;;;0.70;0.70;;;;;;;4.14;100.00;99316.47;5013929;28;20226;-80
2023/01/10 03:11:12;;;;;;;0.60;0.60;;;;;;;4.13;100.00;99314.72;5073591;28;20226;-80
2023/01/10 03:13:46;;;;;;;0.80;0.80;;;;;;;4.21;100.00;99318.38;5038321;28;20559;-79
2023/01/10 03:16:17;;;;;;;0.80;0.80;;;;;;;4.16;100.00;99290.00;5073400;28;20201;-80
2023/01/10 03:18:51;;;;;;;0.90;0.90;;;;;;;4.15;100.00;99315.63;5073172;28;20208;-79
2023/01/10 03:21:20;;;;;;;0.67;0.67;;;;;;;4.17;100.00;99294.31;5073344;28;20199;-79
2023/01/10 03:23:50;;;;;;;0.70;0.70;;;;;;;4.27;100.00;99298.88;5073077;28;20226;-79
2023/01/10 03:26:21;;;;;;;2.20;2.10;;;;;;;4.21;100.00;99296.13;5073229;28;20191;-79
2023/01/10 03:28:52;;;;;;;1.07;1.07;;;;;;;4.18;100.00;99302.88;5073070;28;20673;-79
2023/01/10 03:31:30;;;;;;;1.73;1.73;;;;;;;4.14;100.00;99289.09;5037690;28;20207;-79
2023/01/10 03:33:58;;;;;;;0.87;0.87;;;;;;;4.16;100.00;99297.72;5072900;28;20319;-79
2023/01/10 03:36:31;;;;;;;0.67;0.67;;;;;;;4.00;100.00;99304.09;5073162;28;20206;-79
2023/01/10 03:39:06;;;;;;;1.20;1.20;;;;;;;3.88;100.00;99297.78;5072821;28;20236;-79
2023/01/10 03:41:38;;;;;;;1.00;1.00;;;;;;;3.82;100.00;99297.56;5072749;28;20214;-79
2023/01/10 03:47:05;;;;;;;0.60;0.60;;;;;;;3.76;100.00;99287.16;5031569;28;20328;-80
2023/01/10 03:49:35;;;;;;;1.53;1.53;;;;;;;3.65;100.00;99293.66;5073834;28;20191;-80
2023/01/10 03:52:04;;;;;;;0.70;0.70;;;;;;;3.73;100.00;99277.69;5073119;28;20206;-80
2023/01/10 03:54:31;;;;;;;0.73;0.73;;;;;;;3.62;100.00;99273.94;5073540;28;20202;-79
2023/01/10 03:56:58;;;;;;;1.57;1.50;;;;;;;3.59;100.00;99262.72;5073359;28;20206;-78
2023/01/10 03:59:27;;;;;;;1.27;1.27;;;;;;;3.60;100.00;99254.22;5073652;28;20279;-78
2023/01/10 04:01:55;;;;;;;0.60;0.60;;;;;;;3.41;100.00;99232.31;5073289;28;20199;-79
2023/01/10 04:04:22;;;;;;;3.20;3.00;;;;;;;3.49;100.00;99247.09;5073226;28;20624;-79
2023/01/10 04:06:50;;;;;;;0.90;0.90;;;;;;;3.46;100.00;99223.91;5073268;28;20199;-79
2023/01/10 04:09:17;;;;;;;0.80;0.80;;;;;;;3.61;100.00;99267.06;5072997;28;20235;-81
2023/01/10 04:11:43;;;;;;;1.57;1.57;;;;;;;3.55;100.00;99241.28;5073332;28;20195;-78
2023/01/10 04:14:10;;;;;;;1.23;1.23;;;;;;;3.70;100.00;99261.34;5073318;28;20202;-81
2023/01/10 04:16:37;;;;;;;0.70;0.70;;;;;;;3.69;100.00;99259.59;5073081;28;20199;-80
2023/01/10 04:19:04;;;;;;;0.57;0.57;;;;;;;3.55;100.00;99245.53;5072816;28;20199;-81
2023/01/10 04:21:30;;;;;;;1.03;1.03;;;;;;;3.65;100.00;99257.78;5072908;28;20593;-79
2023/01/10 04:23:58;;;;;;;0.60;0.60;;;;;;;3.58;100.00;99231.09;5072769;28;20230;-79
2023/01/10 04:26:25;;;;;;;0.80;0.80;;;;;;;3.61;100.00;99245.69;5072844;28;20692;-80
2023/01/10 04:28:52;;;;;;;0.83;0.83;;;;;;;3.68;100.00;99257.84;5072845;28;20203;-79
2023/01/10 04:31:19;;;;;;;0.70;0.70;;;;;;;3.76;100.00;99251.25;5073240;28;20708;-80
2023/01/10 04:33:46;;;;;;;1.47;1.47;;;;;;;3.85;100.00;99252.38;5072668;28;20198;-81
2023/01/10 04:36:12;;;;;;;0.70;0.70;;;;;;;3.83;100.00;99254.03;5072674;28;20202;-80
2023/01/10 04:38:39;;;;;;;0.70;0.70;;;;;;;3.79;100.00;99248.78;5072872;28;20195;-81
2023/01/10 04:41:07;;;;;;;1.53;1.53;;;;;;;3.88;100.00;99256.75;5072541;28;20203;-80
2023/01/10 04:43:34;;;;;;;3.93;2.10;;;;;;;3.69;100.00;99228.84;5072532;28;20195;-79
2023/01/10 04:46:01;;;;;;;1.23;1.23;;;;;;;3.85;100.00;99256.66;5072426;28;20199;-80
2023/01/10 04:48:27;;;;;;;0.60;0.60;;;;;;;3.92;100.00;99263.69;5072436;28;20203;-80
2023/01/10 04:50:54;;;;;;;0.70;0.70;;;;;;;3.96;100.00;99234.72;5072374;28;20205;-80
2023/01/10 04:53:22;;;;;;;0.67;0.67;;;;;;;3.89;100.00;99238.81;5072259;28;20657;-79
2023/01/10 04:55:49;;;;;;;1.17;1.17;;;;;;;3.94;100.00;99234.69;5072205;28;20209;-79
2023/01/10 04:58:17;;;;;;;0.60;0.60;;;;;;;3.89;100.00;99225.13;5072404;28;20688;-79
2023/01/10 05:00:44;;;;;;;0.77;0.77;;;;;;;4.01;100.00;99243.44;5072155;28;20206;-80
2023/01/10 05:03:11;;;;;;;0.60;0.60;;;;;;;4.03;100.00;99230.66;5071909;28;20685;-80
2023/01/10 05:05:38;;;;;;;0.80;0.80;;;;;;;4.04;100.00;99228.13;5071740;28;20226;-81
2023/01/10 05:08:05;;;;;;;1.10;1.10;;;;;;;4.09;100.00;99220.56;5071926;28;20202;-80
2023/01/10 05:10:32;;;;;;;6.60;2.50;;;;;;;4.13;100.00;99218.13;5020661;28;20320;-80
2023/01/10 05:12:58;;;;;;;0.60;0.60;;;;;;;4.04;100.00;99202.47;5072023;28;20194;-80
2023/01/10 05:15:27;;;;;;;0.63;0.63;;;;;;;4.20;100.00;99222.59;5071826;28;20195;-81
2023/01/10 05:17:58;;;;;;;0.73;0.73;;;;;;;4.16;100.00;99201.94;5071794;28;20673;-80
2023/01/10 05:20:24;;;;;;;0.60;0.60;;;;;;;4.24;100.00;99218.41;5071867;28;20203;-80
2023/01/10 05:22:51;;;;;;;0.60;0.60;;;;;;;4.29;100.00;99219.38;5071752;28;20627;-81
2023/01/10 05:25:18;;;;;;;0.80;0.80;;;;;;;4.19;100.00;99217.41;5071801;28;20237;-78
2023/01/10 05:27:45;;;;;;;0.70;0.70;;;;;;;4.27;100.00;99219.34;5071688;28;20198;-79
2023/01/10 05:30:13;;;;;;;0.90;0.90;;;;;;;4.35;100.00;99225.50;5071707;28;20202;-81
2023/01/10 05:32:41;;;;;;;0.50;0.50;;;;;;;4.27;100.00;99203.94;5071574;28;20203;-79
2023/01/10 05:35:08;;;;;;;0.90;0.90;;;;;;;4.30;100.00;99210.84;5071640;28;20199;-79
2023/01/10 05:37:35;;;;;;;0.60;0.60;;;;;;;4.45;100.00;99237.78;5071709;28;20202;-77
2023/01/10 05:40:02;;;;;;;0.80;0.80;;;;;;;4.49;100.00;99223.31;5071620;28;20195;-79
2023/01/10 05:42:29;;;;;;;0.63;0.63;;;;;;;4.57;100.00;99236.31;5071514;28;20199;-76
2023/01/10 05:44:56;;;;;;;0.73;0.73;;;;;;;4.59;100.00;99234.69;5071353;28;20230;-79
2023/01/10 05:47:24;;;;;;;0.70;0.70;;;;;;;4.54;100.00;99215.72;5071481;28;20205;-78
2023/01/10 05:49:52;;;;;;;2.40;1.77;;;;;;;4.74;100.00;99233.38;5071595;28;20294;-78
2023/01/10 05:52:19;;;;;;;0.70;0.70;;;;;;;4.64;100.00;99230.53;5036368;28;20213;-78
2023/01/10 05:54:45;;;;;;;0.73;0.73;;;;;;;4.73;100.00;99233.31;5036331;28;20202;-78
2023/01/10 05:57:12;;;;;;;0.60;0.60;;;;;;;4.69;100.00;99222.09;5071424;28;20198;-82
2023/01/10 05:59:39;;;;;;;0.70;0.70;;;;;;;4.84;100.00;99231.88;5020163;28;20191;-82
2023/01/10 06:02:06;;;;;;;0.70;0.70;;;;;;;4.91;100.00;99244.03;5071596;28;20199;-82
2023/01/10 06:04:32;;;;;;;0.80;0.80;;;;;;;4.94;100.00;99244.09;5071324;28;20587;-80
2023/01/10 06:07:01;;;;;;;0.80;0.80;;;;;;;4.99;100.00;99237.38;5071417;28;20290;-83
2023/01/10 06:09:27;;;;;;;0.80;0.80;;;;;;;5.09;100.00;99254.75;5071105;28;20241;-78
2023/01/10 06:11:54;;;;;;;0.60;0.60;;;;;;;5.19;100.00;99248.97;5071434;28;20194;-79
2023/01/10 06:14:21;;;;;;;0.60;0.60;;;;;;;5.26;100.00;99243.16;5019997;28;20280;-81
2023/01/10 06:16:48;;;;;;;0.70;0.70;;;;;;;5.32;100.00;99253.56;5023667;28;20217;-77
2023/01/10 06:19:15;;;;;;;0.70;0.70;;;;;;;5.28;100.00;99262.03;5074578;28;20198;-78
2023/01/10 06:21:41;;;;;;;0.80;0.80;;;;;;;5.21;100.00;99262.72;5075066;28;20634;-82
2023/01/10 06:24:10;;;;;;;0.70;0.70;;;;;;;5.38;100.00;99246.00;5084695;28;20228;-83
2023/01/10 06:26:37;;;;;;;0.73;0.73;;;;;;;5.35;100.00;99227.91;5092925;28;20591;-77
2023/01/10 06:29:04;;;;;;;0.80;0.80;;;;;;;5.55;100.00;99250.63;5074686;28;20585;-79
2023/01/10 06:31:30;;;;;;;0.60;0.60;;;;;;;5.66;100.00;99265.44;5075022;28;20627;-81
2023/01/10 06:33:57;;;;;;;0.60;0.60;;;;;;;5.64;100.00;99261.97;5075156;28;20626;-85
2023/01/10 06:36:24;;;;;;;0.70;0.70;;;;;;;5.60;100.00;99259.31;5089553;28;20222;-90
2023/01/10 06:38:51;;;;;;;0.50;0.50;;;;;;;5.61;100.00;99251.63;5086880;28;20636;-85
2023/01/10 06:41:19;;;;;;;0.60;0.60;;;;;;;5.74;100.00;99256.16;5094937;28;20631;-75
2023/01/10 06:43:46;;;;;;;0.60;0.60;;;;;;;5.58;100.00;99260.97;5084979;28;20206;-77
2023/01/10 06:46:15;;;;;;;1.07;1.07;;;;;;;5.62;100.00;99255.06;5076332;28;20320;-74
2023/01/10 06:48:42;;;;;;;0.83;0.83;;;;;;;5.67;100.00;99256.88;5085292;28;20207;-75
2023/01/10 06:51:09;;;;;;;1.27;1.17;;;;;;;5.66;100.00;99262.00;5074184;28;20207;-74
2023/01/10 06:53:36;;;;;;;0.60;0.60;;;;;;;5.69;100.00;99250.09;5093758;28;20209;-76
2023/01/10 06:56:04;;;;;;;0.80;0.80;;;;;;;5.65;100.00;99262.84;5080978;28;20214;-76
2023/01/10 06:58:33;;;;;;;0.70;0.70;;;;;;;5.64;100.00;99266.22;5073413;28;20203;-76
2023/01/10 07:01:00;;;;;;;0.77;0.77;;;;;;;5.59;100.00;99273.00;5085203;28;20235;-78
2023/01/10 07:03:27;;;;;;;0.90;0.90;;;;;;;5.59;100.00;99265.28;5088030;28;20203;-75
2023/01/10 07:05:53;;;;;;;0.80;0.80;;;;;;;5.72;100.00;99274.97;5073260;28;20284;-76
2023/01/10 07:08:20;;;;;;;0.70;0.70;;;;;;;5.71;100.00;99268.09;5091336;28;20209;-77
2023/01/10 07:10:47;;;;;;;0.60;0.60;;;;;;;5.22;100.00;99184.81;5094019;28;20198;-77
2023/01/10 07:13:14;;;;;;;0.60;0.60;;;;;;;5.66;100.00;99280.00;5093922;28;20595;-76
2023/01/10 07:15:42;;;;;;;1.10;1.10;;;;;;;5.66;100.00;99295.44;5093600;28;20716;-75
2023/01/10 07:18:08;;;;;;;0.70;0.70;;;;;;;5.69;100.00;99292.91;5058197;28;20194;-75
2023/01/10 07:20:35;;;;;;;0.80;0.80;;;;;;;5.71;100.00;99298.94;5093769;28;20206;-75
2023/01/10 07:23:02;;;;;;;0.80;0.80;;;;;;;5.74;100.00;99301.63;5093532;28;20198;-75
2023/01/10 07:25:30;;;;;;;1.13;1.13;;;;;;;5.76;100.00;99313.66;5041704;28;20226;-77
2023/01/10 07:27:56;;;;;;;0.47;0.47;;;;;;;5.79;100.00;99302.56;5092678;28;20657;-76
2023/01/10 07:30:24;;;;;;;4.43;3.70;;;;;;;5.98;100.00;99292.75;5093336;28;20232;-76
2023/01/10 07:32:56;;;;;;;0.60;0.60;;;;;;;6.17;100.00;99295.69;5093225;28;20208;-76
2023/01/10 07:35:23;;;;;;;0.80;0.80;;;;;;;6.30;100.00;99295.94;5093589;28;20206;-76
2023/01/10 07:37:50;;;;;;;4.63;3.53;;;;;;;6.28;100.00;99305.31;5093645;28;20205;-76
2023/01/10 07:40:18;;;;;;;0.80;0.80;;;;;;;6.33;100.00;99306.28;5093549;28;20335;-78
2023/01/10 07:42:44;;;;;;;0.70;0.70;;;;;;;6.28;100.00;99302.75;5093270;28;20263;-75
2023/01/10 07:45:11;;;;;;;3.50;3.33;;;;;;;6.50;100.00;99304.03;5093112;28;20226;-76
2023/01/10 07:47:38;;;;;;;0.60;0.60;;;;;;;6.72;100.00;99300.13;5093070;28;20210;-76
2023/01/10 07:50:08;;;;;;;0.60;0.60;;;;;;;6.98;100.00;99309.19;5092914;28;20693;-76
2023/01/10 07:52:37;;;;;;;2.37;1.20;;;;;;;7.16;100.00;99304.34;5087548;28;20286;-75
2023/01/10 07:55:04;;;;;;;1.00;1.00;;;;;;;7.18;100.00;99284.59;5035282;28;20618;-75
2023/01/10 07:57:31;;;;;;;1.07;1.07;;;;;;;6.78;100.00;99302.81;5076097;28;20203;-74
2023/01/10 07:59:58;;;;;;;0.60;0.60;;;;;;;6.88;100.00;99304.72;5086475;28;20723;-75
2023/01/10 08:02:24;;;;;;;1.23;1.23;;;;;;;6.60;100.00;99303.34;5086551;28;20281;-76
2023/01/10 08:04:51;;;;;;;1.23;1.23;;;;;;;6.52;100.00;99304.94;5080173;28;20666;-75
2023/01/10 08:07:19;;;;;;;3.43;1.63;;;;;;;6.35;100.00;99296.88;5092327;28;20672;-75
2023/01/10 08:09:46;;;;;;;2.50;2.30;;;;;;;6.18;100.00;99303.41;5071964;28;20292;-76
2023/01/10 08:12:13;;;;;;;3.60;1.40;;;;;;;5.72;100.00;99208.13;5084810;28;20198;-76
2023/01/10 08:14:40;;;;;;;1.00;1.00;;;;;;;6.39;100.00;99303.81;5073424;28;20206;-76
2023/01/10 08:17:06;;;;;;;0.53;0.53;;;;;;;6.78;100.00;99297.66;5072203;28;20207;-80
2023/01/10 08:19:33;;;;;;;1.00;1.00;;;;;;;6.93;100.00;99293.63;5074890;28;20199;-81
2023/01/10 08:22:01;;;;;;;0.70;0.70;;;;;;;7.03;100.00;99299.81;5083618;28;20218;-85
2023/01/10 08:24:30;;;;;;;0.70;0.70;;;;;;;6.94;100.00;99294.50;5086022;28;20205;-86
2023/01/10 08:26:58;;;;;;;1.53;1.53;;;;;;;7.21;100.00;99305.25;5079593;28;20198;-84
2023/01/10 08:29:25;;;;;;;0.50;0.50;;;;;;;7.13;100.00;99293.97;5092516;28;20281;-83
2023/01/10 08:31:52;;;;;;;0.70;0.70;;;;;;;7.30;100.00;99300.25;5092174;28;20206;-87
2023/01/10 08:34:19;;;;;;;0.60;0.60;;;;;;;7.26;100.00;99258.94;5080710;28;20211;-81
2023/01/10 08:36:49;;;;;;;0.67;0.67;;;;;;;7.34;100.00;99286.56;5075613;28;20214;-81
2023/01/10 08:39:16;;;;;;;0.90;0.90;;;;;;;7.51;100.00;99298.84;5080266;28;20576;-80
2023/01/10 08:41:44;;;;;;;1.00;1.00;;;;;;;7.25;100.00;99296.72;5085632;28;20205;-82
2023/01/10 08:44:12;;;;;;;0.67;0.67;;;;;;;7.34;100.00;99290.84;5071616;28;20206;-85
2023/01/10 08:46:39;;;;;;;0.93;0.93;;;;;;;7.02;100.00;99261.16;5085596;28;20222;-82
2023/01/10 08:49:06;;;;;;;0.80;0.80;;;;;;;6.80;100.00;99280.53;5078791;28;20198;-82
2023/01/10 08:51:32;;;;;;;0.90;0.90;;;;;;;6.69;100.00;99277.78;5091880;28;20676;-89
2023/01/10 08:53:59;;;;;;;1.10;1.10;;;;;;;6.74;100.00;99273.56;5086728;28;20642;-84
2023/01/10 08:56:26;;;;;;;1.00;1.00;;;;;;;6.60;100.00;99272.44;5083706;28;20210;-78
2023/01/10 08:58:54;;;;;;;1.13;1.13;;;;;;;6.44;100.00;99224.97;5036200;28;20203;-86
2023/01/10 09:01:21;;;;;;;1.40;1.40;;;;;;;6.56;100.00;99251.78;5071543;28;20700;-81
2023/01/10 09:03:48;;;;;;;0.70;0.70;;;;;;;7.00;100.00;99248.22;5075956;28;20202;-85
2023/01/10 09:06:15;;;;;;;0.40;0.40;;;;;;;7.12;100.00;99225.22;5072422;28;20713;-87
2023/01/10 09:08:42;;;;;;;0.90;0.90;;;;;;;7.27;100.00;99246.06;5085609;28;20230;-85
2023/01/10 09:11:08;;;;;;;1.13;1.13;;;;;;;7.32;100.00;99241.84;5071127;28;20203;-83
2023/01/10 09:13:35;;;;;;;0.60;0.60;;;;;;;7.53;100.00;99245.59;5071081;28;20264;-87
2023/01/10 09:16:04;;;;;;;1.00;1.00;;;;;;;7.61;100.00;99243.94;5085507;28;20210;-83
2023/01/10 09:18:32;;;;;;;0.70;0.70;;;;;;;7.58;100.00;99249.94;5082727;28;20217;-85
2023/01/10 09:20:58;;;;;;;0.53;0.53;;;;;;;7.62;100.00;99256.00;5091006;28;20209;-84
2023/01/10 09:23:25;;;;;;;0.50;0.50;;;;;;;7.52;100.00;99254.16;5091145;28;20266;-84
2023/01/10 09:25:54;;;;;;;2.43;1.90;;;;;;;7.26;100.00;99226.28;5089594;28;20222;-85
2023/01/10 09:28:23;;;;;;;0.60;0.60;;;;;;;7.14;100.00;99227.81;5078541;28;20202;-81
2023/01/10 09:30:50;;;;;;;1.30;1.30;;;;;;;7.09;100.00;99220.03;5076855;28;20257;-84
2023/01/10 09:33:18;;;;;;;0.70;0.70;;;;;;;7.13;100.00;99208.91;5070692;28;20672;-83
2023/01/10 09:35:45;;;;;;;1.63;1.63;;;;;;;7.17;100.00;99210.66;5083423;28;20206;-82
2023/01/10 09:38:14;;;;;;;1.00;1.00;;;;;;;7.35;100.00;99218.66;5071943;28;20195;-81
2023/01/10 09:40:58;;;;;;;1.27;1.17;;;;;;;7.46;100.00;99219.69;5070461;28;20234;-88
2023/01/10 09:43:35;;;;;;;1.23;1.23;;;;;;;7.48;100.00;99210.28;5084658;28;20564;-82
2023/01/10 09:46:08;;;;;;;2.30;2.20;;;;;;;7.38;100.00;99205.81;5070784;28;20258;-80
2023/01/10 09:48:43;;;;;;;0.60;0.60;;;;;;;7.49;100.00;99193.94;5027109;28;20198;-84
2023/01/10 09:51:32;;;;;;;0.50;0.50;;;;;;;7.59;100.00;99194.94;5076885;28;20231;-83
2023/01/10 09:54:02;;;;;;;0.70;0.70;;;;;;;7.54;100.00;99201.72;5070310;28;20199;-84
2023/01/10 09:56:31;;;;;;;0.63;0.63;;;;;;;7.46;100.00;99177.56;5070431;28;20209;-86
2023/01/10 09:59:01;;;;;;;1.13;1.13;;;;;;;7.49;100.00;99177.63;5070461;28;20202;-83
2023/01/10 10:01:35;;;;;;;0.50;0.50;;;;;;;7.61;100.00;99171.72;5084626;28;20279;-84
2023/01/10 10:04:15;;;;;;;1.20;1.20;;;;;;;7.61;100.00;99177.75;5076152;28;20201;-83
2023/01/10 10:06:42;;;;;;;0.70;0.70;;;;;;;7.57;100.00;99169.94;5079773;28;20222;-89
2023/01/10 10:09:13;;;;;;;0.53;0.53;;;;;;;7.64;100.00;99162.31;5070335;28;20242;-84
2023/01/10 10:12:00;;;;;;;0.63;0.63;;;;;;;7.67;100.00;99151.19;5032599;28;20199;-83
2023/01/10 10:14:43;;;;;;;1.07;1.07;;;;;;;7.89;100.00;99155.69;5070002;28;20665;-83
2023/01/10 10:17:26;;;;;;;1.20;1.17;;;;;;;7.96;100.00;99150.63;5083967;28;20680;-89
2023/01/10 10:20:14;;;;;;;0.70;0.70;;;;;;;7.97;100.00;99154.94;5082420;28;20206;-82
2023/01/10 10:22:53;;;;;;;0.60;0.60;;;;;;;7.99;100.00;99145.50;4972004;28;20197;-83
2023/01/10 10:25:39;;;;;;;1.13;1.13;;;;;;;8.01;100.00;99142.94;4978269;28;20202;-84
2023/01/10 10:28:22;;;;;;;0.70;0.70;;;;;;;8.12;100.00;99146.50;4988018;28;20201;-83
2023/01/10 10:30:55;;;;;;;0.60;0.60;;;;;;;8.23;100.00;99142.28;4988712;28;20217;-84
2023/01/10 10:33:43;;;;;;;0.60;0.60;;;;;;;8.25;100.00;99138.00;4988692;28;20202;-84
2023/01/10 10:36:15;;;;;;;0.83;0.83;;;;;;;8.20;100.00;99100.97;4988379;28;20220;-84
2023/01/10 10:38:46;;;;;;;0.70;0.70;;;;;;;8.32;100.00;99103.66;4988707;28;20267;-84
2023/01/10 10:41:18;;;;;;;0.80;0.80;;;;;;;8.41;100.00;99129.56;4987305;28;20206;-83
2023/01/10 10:43:47;;;;;;;0.60;0.60;;;;;;;8.47;100.00;99092.59;4977256;28;20685;-82
2023/01/10 10:46:18;;;;;;;0.60;0.60;;;;;;;8.70;100.00;99121.19;4988310;28;20221;-83
2023/01/10 10:48:53;;;;;;;0.47;0.47;;;;;;;8.76;100.00;99121.22;4988504;28;20202;-84
2023/01/10 10:51:26;;;;;;;1.37;1.27;;;;;;;8.86;100.00;99107.50;4987932;28;20201;-87
2023/01/10 10:53:54;;;;;;;0.57;0.57;;;;;;;8.49;100.00;99064.19;4970673;28;20206;-83
2023/01/10 10:56:24;;;;;;;0.50;0.50;;;;;;;8.49;100.00;99075.38;4970092;28;20198;-83
2023/01/10 10:58:54;;;;;;;3.23;1.47;;;;;;;8.66;100.00;99104.78;4982998;28;20285;-83
2023/01/10 11:01:22;;;;;;;0.40;0.40;;;;;;;8.55;100.00;99085.78;5079048;28;20300;-82
2023/01/10 11:03:53;;;;;;;0.50;0.50;;;;;;;8.44;100.00;99093.44;5078976;28;20682;-84
2023/01/10 11:06:23;;;;;;;2.33;2.23;;;;;;;8.57;100.00;99103.84;5085466;28;20230;-82
2023/01/10 11:08:53;;;;;;;0.70;0.70;;;;;;;8.63;100.00;99091.00;5073490;28;20634;-83
2023/01/10 11:11:25;;;;;;;0.50;0.50;;;;;;;8.46;100.00;99055.56;5073756;28;20199;-83
2023/01/10 11:13:55;;;;;;;1.37;1.33;;;;;;;8.66;100.00;99070.34;5073572;28;20234;-83
2023/01/10 11:16:28;;;;;;;1.00;1.00;;;;;;;8.83;100.00;99071.28;5073628;28;20700;-83
2023/01/10 11:19:25;;;;;;;0.60;0.60;;;;;;;8.93;100.00;99073.06;5073420;28;20256;-84
2023/01/10 11:21:56;;;;;;;0.60;0.60;;;;;;;8.89;100.00;99059.25;4991999;28;20230;-84
2023/01/10 11:24:27;;;;;;;1.43;1.43;;;;;;;8.97;100.00;99059.31;4992044;28;20591;-84
2023/01/10 11:26:55;;;;;;;0.97;0.97;;;;;;;8.89;100.00;99059.25;4991699;28;20229;-83
2023/01/10 11:29:26;;;;;;;0.60;0.60;;;;;;;8.94;100.00;99049.81;4991809;28;20198;-83
2023/01/10 11:31:55;;;;;;;0.60;0.60;;;;;;;8.83;100.00;99023.06;4991938;28;20599;-84
2023/01/10 11:34:25;;;;;;;1.27;1.27;;;;;;;8.91;100.00;99043.78;4991765;28;20271;-83
2023/01/10 11:36:56;;;;;;;1.10;1.10;;;;;;;8.76;100.00;99029.06;4991527;28;20217;-83
2023/01/10 11:39:23;;;;;;;0.93;0.93;;;;;;;8.80;100.00;99040.28;4991447;28;20351;-85
2023/01/10 11:41:52;;;;;;;0.60;0.60;;;;;;;8.76;100.00;99034.22;4975238;28;20206;-84
2023/01/10 11:44:23;;;;;;;0.60;0.60;;;;;;;8.82;100.00;99036.81;4991721;28;20202;-83
2023/01/10 11:46:53;;;;;;;1.03;1.03;;;;;;;8.86;100.00;99040.28;4959065;28;20229;-82
2023/01/10 11:49:26;;;;;;;0.70;0.70;;;;;;;8.84;100.00;99047.19;4991690;28;20201;-87
2023/01/10 11:51:59;;;;;;;0.80;0.80;;;;;;;8.78;100.00;99031.63;4991426;28;20213;-86
2023/01/10 11:54:28;;;;;;;0.80;0.80;;;;;;;8.62;100.00;99024.66;4991422;28;20295;-85